Salford, Pennsylvania
Current Conditions -  °F | °C
As of 3:54 PM on Saturday 25 Oct 2014 (Local Time) from KPTW Reporting Station
Clear Clear  
Wind Chill: 67°   Ceiling: Unl
Heat Index: 67°   Visibility: 10mi
Dew Point: 43°   Wind: 12mph
Humidity: 42%   Direction: 250°WSW
Pressure: 29.74"   Gusts: 18mph
Location:  40.3°N, 75.45°W
Report Text: KPTW 251954Z AUTO 25010G16KT 10SM CLR 19/06 A2974 RMK AO2 SLP066 T01940061
Loading
Personal Weather Stations






























Interactive Weather Map
Tropical Storm Tracking
New forecast layout! Learn more

10-Day Weather Forecast

Advertisements
Track Severe Weather on mobile